Time;durP1;ratioP1;P1;durP2;ratioP2;P2;SDS_P1;SDS_P2;PMS_P1;PMS_P2;Temp;Humidity;BMP_temperature;BMP_pressure;BME280_temperature;BME280_humidity;BME280_pressure;Samples;Min_cycle;Max_cycle;Signal;HPM_P1;HPM_P2
2023/02/21 02:14:59;;;;;;;5.57;2.80;;;;;;;;;;5033302;28;20057;-77
2023/02/21 02:17:55;;;;;;;5.87;2.80;;;;;;;;;;5048598;28;20029;-78
2023/02/21 02:20:34;;;;;;;9.83;3.17;;;;;;;;;;5032150;28;20219;-78
2023/02/21 02:23:18;;;;;;;5.80;3.07;;;;;;;;;;5032692;28;20033;-78
2023/02/21 02:26:25;;;;;;;6.23;3.23;;;;;;;;;;5032481;28;20124;-77
2023/02/21 02:29:05;;;;;;;5.60;2.65;;;;;;;;;;4999215;28;20407;-77
2023/02/21 02:32:08;;;;;;;6.50;3.70;;;;;;;;;;5031470;28;20032;-77
2023/02/21 02:34:52;;;;;;;7.47;2.97;;;;;;;;;;5033794;28;20044;-77
2023/02/21 02:37:27;;;;;;;7.17;2.77;;;;;;;;;;5032669;28;20041;-77
2023/02/21 02:40:26;;;;;;;5.87;2.47;;;;;;;;;;5032516;28;20116;-77
2023/02/21 02:43:13;;;;;;;8.50;3.37;;;;;;;;;;4973821;28;20033;-77
2023/02/21 02:45:47;;;;;;;4.20;2.75;;;;;;;;;;5032122;28;20380;-77
2023/02/21 02:48:19;;;;;;;8.37;2.70;;;;;;;;;;5033990;28;20310;-77
2023/02/21 02:50:48;;;;;;;4.90;2.63;;;;;;;;;;5032609;28;20056;-77
2023/02/21 02:53:21;;;;;;;8.80;2.97;;;;;;;;;;5032765;28;20108;-77
2023/02/21 02:56:01;;;;;;;5.20;2.80;;;;;;;;;;5032640;28;20029;-77
2023/02/21 02:58:35;;;;;;;5.85;2.97;;;;;;;;;;5032701;28;20056;-76
2023/02/21 03:01:19;;;;;;;7.13;3.20;;;;;;;;;;5032707;28;20483;-79
2023/02/21 03:04:12;;;;;;;11.50;4.20;;;;;;;;;;5033314;28;20059;-77
2023/02/21 03:06:53;;;;;;;5.78;3.17;;;;;;;;;;5033227;28;20031;-77
2023/02/21 03:09:50;;;;;;;7.63;2.93;;;;;;;;;;5031716;28;20029;-77
2023/02/21 03:12:34;;;;;;;5.30;2.93;;;;;;;;;;5005997;28;20033;-77
2023/02/21 03:15:06;;;;;;;11.17;4.07;;;;;;;;;;5030994;28;20485;-77
2023/02/21 03:17:39;;;;;;;6.95;3.05;;;;;;;;;;5030770;28;20040;-77
2023/02/21 03:20:06;;;;;;;6.35;3.63;;;;;;;;;;5030560;28;20027;-77
2023/02/21 03:22:32;;;;;;;7.93;3.10;;;;;;;;;;5030407;28;20036;-77
2023/02/21 03:25:01;;;;;;;8.33;2.80;;;;;;;;;;5046958;28;20025;-76
2023/02/21 03:27:29;;;;;;;10.70;3.13;;;;;;;;;;5030031;28;20025;-78
2023/02/21 03:29:59;;;;;;;7.47;3.37;;;;;;;;;;5031783;28;20051;-77
2023/02/21 03:34:55;;;;;;;13.40;4.00;;;;;;;;;;5032611;28;20029;-77
2023/02/21 03:37:36;;;;;;;10.90;3.47;;;;;;;;;;5030698;28;20194;-77
2023/02/21 03:40:08;;;;;;;8.50;3.15;;;;;;;;;;5031685;28;20009;-78
2023/02/21 03:42:33;;;;;;;9.70;3.35;;;;;;;;;;5031508;28;20047;-78
2023/02/21 03:44:59;;;;;;;7.95;2.90;;;;;;;;;;5031753;28;20065;-78
2023/02/21 03:47:24;;;;;;;5.95;3.03;;;;;;;;;;5055788;28;20361;-79
2023/02/21 03:49:50;;;;;;;11.35;3.50;;;;;;;;;;5047225;28;20068;-77
2023/02/21 03:52:15;;;;;;;5.13;3.08;;;;;;;;;;5045977;28;20025;-78
2023/02/21 03:54:41;;;;;;;6.85;3.60;;;;;;;;;;5046256;28;20488;-75
2023/02/21 03:57:07;;;;;;;6.37;3.03;;;;;;;;;;5042354;28;20028;-76
2023/02/21 03:59:32;;;;;;;7.40;3.17;;;;;;;;;;5066554;28;20035;-76
2023/02/21 04:01:58;;;;;;;14.07;3.87;;;;;;;;;;5047740;28;20506;-77
2023/02/21 04:04:24;;;;;;;7.85;3.30;;;;;;;;;;5050920;28;20029;-77
2023/02/21 04:06:49;;;;;;;5.75;3.40;;;;;;;;;;5051290;28;20047;-77
2023/02/21 04:09:15;;;;;;;10.20;3.28;;;;;;;;;;5051601;28;20103;-77
2023/02/21 04:11:44;;;;;;;7.25;3.47;;;;;;;;;;5049826;28;20392;-78
2023/02/21 04:14:10;;;;;;;8.27;3.67;;;;;;;;;;5046201;28;20064;-78
2023/02/21 04:16:36;;;;;;;6.10;3.08;;;;;;;;;;5029770;28;20124;-77
2023/02/21 04:19:01;;;;;;;4.10;2.67;;;;;;;;;;5041068;28;20082;-77
2023/02/21 04:21:27;;;;;;;10.10;3.30;;;;;;;;;;5051127;28;20037;-77
2023/02/21 04:23:53;;;;;;;6.40;4.00;;;;;;;;;;5035918;28;20028;-77
2023/02/21 04:26:18;;;;;;;9.43;3.70;;;;;;;;;;5051325;28;20313;-76
2023/02/21 04:28:44;;;;;;;8.23;2.95;;;;;;;;;;5066287;28;20512;-78
2023/02/21 04:31:09;;;;;;;7.43;2.85;;;;;;;;;;5048741;28;20387;-77
2023/02/21 04:33:35;;;;;;;6.50;2.83;;;;;;;;;;5063379;28;20105;-77
2023/02/21 04:36:00;;;;;;;9.27;3.40;;;;;;;;;;5065647;28;20069;-78
2023/02/21 04:38:26;;;;;;;8.15;2.83;;;;;;;;;;5048964;28;20024;-78
2023/02/21 04:40:51;;;;;;;11.13;3.13;;;;;;;;;;5057161;28;20035;-77
2023/02/21 04:43:17;;;;;;;7.97;3.17;;;;;;;;;;5066118;28;20078;-77
2023/02/21 04:45:42;;;;;;;6.88;3.05;;;;;;;;;;5050761;28;20033;-77
2023/02/21 04:48:08;;;;;;;6.05;2.80;;;;;;;;;;5050234;28;20415;-77
2023/02/21 04:50:33;;;;;;;4.95;2.70;;;;;;;;;;5057968;28;20469;-77
2023/02/21 04:53:00;;;;;;;7.63;3.13;;;;;;;;;;5037797;28;20029;-77
2023/02/21 04:55:26;;;;;;;7.20;4.05;;;;;;;;;;5044880;28;20055;-76
2023/02/21 04:57:51;;;;;;;12.90;3.40;;;;;;;;;;5067925;28;20029;-77
2023/02/21 05:00:17;;;;;;;13.30;3.17;;;;;;;;;;5070937;28;20476;-76
2023/02/21 05:02:43;;;;;;;5.43;3.22;;;;;;;;;;5070131;28;20071;-76
2023/02/21 05:05:09;;;;;;;7.40;2.83;;;;;;;;;;5071034;28;20040;-77
2023/02/21 05:07:35;;;;;;;7.60;2.67;;;;;;;;;;5071856;28;20115;-78
2023/02/21 05:10:00;;;;;;;6.80;2.83;;;;;;;;;;5070511;28;20056;-76
2023/02/21 05:12:26;;;;;;;16.92;4.78;;;;;;;;;;5068108;28;20546;-77
2023/02/21 05:14:51;;;;;;;18.65;4.10;;;;;;;;;;5071914;28;20090;-77
2023/02/21 05:17:17;;;;;;;7.28;2.72;;;;;;;;;;5073606;28;20029;-76
2023/02/21 05:19:43;;;;;;;6.88;2.72;;;;;;;;;;5074986;28;20032;-76
2023/02/21 05:22:08;;;;;;;5.15;2.60;;;;;;;;;;5073761;28;20025;-77
2023/02/21 05:24:34;;;;;;;5.47;2.75;;;;;;;;;;5074413;28;20514;-77
2023/02/21 05:26:59;;;;;;;7.22;2.60;;;;;;;;;;5074107;28;20024;-77
2023/02/21 05:29:25;;;;;;;7.00;2.92;;;;;;;;;;5056412;28;20047;-77
2023/02/21 05:31:51;;;;;;;5.57;2.55;;;;;;;;;;5073429;28;20535;-77
2023/02/21 05:34:18;;;;;;;4.50;2.30;;;;;;;;;;5072741;28;20115;-77
2023/02/21 05:36:44;;;;;;;6.60;2.67;;;;;;;;;;5074695;28;20044;-78
2023/02/21 05:39:10;;;;;;;4.82;2.60;;;;;;;;;;5063647;28;20120;-77
2023/02/21 05:41:36;;;;;;;6.75;2.47;;;;;;;;;;5054708;28;20392;-78
2023/02/21 05:44:02;;;;;;;4.65;2.30;;;;;;;;;;5053833;28;20032;-76
2023/02/21 05:46:31;;;;;;;6.60;2.53;;;;;;;;;;5052447;28;20043;-77
2023/02/21 05:48:58;;;;;;;3.55;2.10;;;;;;;;;;5052420;28;20028;-77
2023/02/21 05:51:24;;;;;;;5.25;2.22;;;;;;;;;;5053993;28;20028;-77
2023/02/21 05:53:50;;;;;;;6.90;2.25;;;;;;;;;;5054481;28;20025;-77
2023/02/21 05:56:17;;;;;;;3.53;2.13;;;;;;;;;;5052756;28;20063;-78
2023/02/21 05:58:43;;;;;;;3.90;2.37;;;;;;;;;;5053026;28;20476;-78
2023/02/21 06:01:09;;;;;;;5.68;1.77;;;;;;;;;;5052057;28;20416;-78
2023/02/21 06:03:35;;;;;;;5.20;2.10;;;;;;;;;;5053977;28;20441;-78
2023/02/21 06:06:00;;;;;;;3.67;1.83;;;;;;;;;;5052087;28;20090;-77
2023/02/21 06:08:26;;;;;;;3.47;1.90;;;;;;;;;;5053557;28;20064;-79
2023/02/21 06:10:51;;;;;;;9.18;2.58;;;;;;;;;;5053359;28;20338;-78
2023/02/21 06:13:17;;;;;;;3.85;1.50;;;;;;;;;;5050495;28;20388;-76
2023/02/21 06:15:42;;;;;;;4.75;1.70;;;;;;;;;;5044459;28;20036;-76
2023/02/21 06:18:08;;;;;;;2.55;1.65;;;;;;;;;;5065006;28;20024;-77
2023/02/21 06:20:33;;;;;;;6.20;1.83;;;;;;;;;;5054113;28;20059;-77
2023/02/21 06:22:59;;;;;;;3.55;1.38;;;;;;;;;;5051594;28;20028;-79
2023/02/21 06:25:24;;;;;;;3.35;1.98;;;;;;;;;;5042701;28;20025;-78
2023/02/21 06:27:50;;;;;;;3.07;1.60;;;;;;;;;;5057070;28;20029;-77
2023/02/21 06:30:15;;;;;;;4.00;1.90;;;;;;;;;;5059132;28;20028;-77
2023/02/21 06:32:42;;;;;;;4.90;2.10;;;;;;;;;;5058160;28;20049;-78
2023/02/21 06:35:08;;;;;;;5.40;2.17;;;;;;;;;;5056702;28;20049;-77
2023/02/21 06:37:34;;;;;;;4.35;1.55;;;;;;;;;;5030825;28;20519;-78
2023/02/21 06:40:00;;;;;;;9.07;2.42;;;;;;;;;;5052017;28;20112;-79
2023/02/21 06:42:25;;;;;;;4.20;2.30;;;;;;;;;;5052171;28;20046;-78
2023/02/21 06:44:51;;;;;;;4.03;1.80;;;;;;;;;;5052705;28;20109;-75
2023/02/21 06:47:16;;;;;;;5.68;1.92;;;;;;;;;;5063452;28;20024;-77
2023/02/21 06:49:42;;;;;;;5.82;2.00;;;;;;;;;;5049111;28;20039;-78
2023/02/21 06:52:09;;;;;;;7.63;2.58;;;;;;;;;;5065740;28;20028;-80
2023/02/21 06:54:35;;;;;;;6.60;2.50;;;;;;;;;;5030371;28;20502;-78
2023/02/21 06:57:01;;;;;;;4.43;2.08;;;;;;;;;;5047276;28;20013;-76
2023/02/21 06:59:29;;;;;;;6.20;2.08;;;;;;;;;;5043253;28;20021;-77
2023/02/21 07:01:56;;;;;;;8.33;2.73;;;;;;;;;;5046217;28;20158;-80
2023/02/21 07:04:21;;;;;;;8.88;2.45;;;;;;;;;;5055581;28;20093;-77
2023/02/21 07:06:47;;;;;;;6.60;2.40;;;;;;;;;;5057540;28;20565;-78
2023/02/21 07:09:13;;;;;;;13.65;2.85;;;;;;;;;;5046490;28;20458;-76
2023/02/21 07:11:39;;;;;;;8.68;2.95;;;;;;;;;;5035774;28;20029;-77
2023/02/21 07:14:05;;;;;;;10.25;5.75;;;;;;;;;;5050559;28;20440;-78
2023/02/21 07:16:31;;;;;;;10.55;3.22;;;;;;;;;;5044273;28;20043;-77
2023/02/21 07:18:56;;;;;;;6.15;2.80;;;;;;;;;;5038770;28;20366;-80
2023/02/21 07:21:24;;;;;;;8.55;2.92;;;;;;;;;;5036636;28;20568;-78
2023/02/21 07:23:50;;;;;;;5.97;2.45;;;;;;;;;;5035454;28;20083;-78
2023/02/21 07:26:16;;;;;;;11.63;2.60;;;;;;;;;;5038537;28;20033;-78
2023/02/21 07:28:42;;;;;;;6.10;3.10;;;;;;;;;;5039991;28;20032;-77
2023/02/21 07:31:09;;;;;;;6.13;2.28;;;;;;;;;;5040718;28;20452;-78
2023/02/21 07:33:35;;;;;;;12.57;3.15;;;;;;;;;;5047664;28;20235;-79
2023/02/21 07:36:02;;;;;;;6.65;2.17;;;;;;;;;;5040416;28;20083;-78
2023/02/21 07:38:29;;;;;;;8.20;2.50;;;;;;;;;;5047356;28;20096;-79
2023/02/21 07:41:00;;;;;;;3.17;1.80;;;;;;;;;;5046958;28;20041;-77
2023/02/21 07:43:27;;;;;;;6.73;2.10;;;;;;;;;;5049140;28;20067;-78
2023/02/21 07:45:53;;;;;;;6.15;2.20;;;;;;;;;;5046439;28;20128;-78
2023/02/21 07:48:19;;;;;;;2.22;1.83;;;;;;;;;;5044403;28;20043;-78
2023/02/21 07:50:46;;;;;;;5.43;2.33;;;;;;;;;;5045015;28;20021;-78
2023/02/21 07:53:13;;;;;;;5.53;2.38;;;;;;;;;;5043045;28;20029;-78
2023/02/21 07:55:38;;;;;;;5.57;2.28;;;;;;;;;;5034718;28;20359;-78
2023/02/21 07:58:04;;;;;;;4.65;1.92;;;;;;;;;;5049137;28;20121;-79
2023/02/21 08:00:30;;;;;;;4.50;2.22;;;;;;;;;;5050413;28;20093;-79
2023/02/21 08:02:56;;;;;;;5.30;2.42;;;;;;;;;;5039290;28;20032;-79
2023/02/21 08:05:22;;;;;;;2.95;2.17;;;;;;;;;;5039650;28;20037;-80
2023/02/21 08:07:52;;;;;;;7.53;2.17;;;;;;;;;;5046750;28;20448;-79
2023/02/21 08:10:25;;;;;;;6.15;2.42;;;;;;;;;;5041289;28;20052;-78
2023/02/21 08:12:51;;;;;;;5.75;2.70;;;;;;;;;;5047342;28;20037;-77
2023/02/21 08:15:17;;;;;;;3.38;2.22;;;;;;;;;;5040264;28;20030;-76
2023/02/21 08:17:47;;;;;;;4.55;2.33;;;;;;;;;;5039893;28;20051;-77
2023/02/21 08:20:13;;;;;;;4.00;1.73;;;;;;;;;;5044380;28;20041;-78
2023/02/21 08:22:38;;;;;;;2.30;1.67;;;;;;;;;;5061013;28;20433;-76
2023/02/21 08:25:04;;;;;;;3.22;1.67;;;;;;;;;;5039337;28;20186;-77
2023/02/21 08:27:29;;;;;;;6.07;2.10;;;;;;;;;;5037671;28;20033;-76
2023/02/21 08:29:56;;;;;;;3.05;2.30;;;;;;;;;;5042074;28;20364;-76
2023/02/21 08:32:22;;;;;;;5.80;2.28;;;;;;;;;;5041170;28;20488;-76
2023/02/21 08:34:48;;;;;;;6.32;2.47;;;;;;;;;;5037354;28;20056;-78
2023/02/21 08:37:18;;;;;;;3.00;2.08;;;;;;;;;;5042731;28;20025;-77
2023/02/21 08:39:51;;;;;;;5.72;2.10;;;;;;;;;;5043639;28;20083;-78
2023/02/21 08:42:18;;;;;;;5.47;2.53;;;;;;;;;;5035806;28;20031;-77
2023/02/21 08:44:45;;;;;;;5.30;2.38;;;;;;;;;;5042583;28;20419;-77
2023/02/21 08:47:11;;;;;;;6.00;2.50;;;;;;;;;;5041766;28;20428;-77
2023/02/21 08:49:38;;;;;;;3.78;2.13;;;;;;;;;;5040184;28;20044;-77
2023/02/21 08:52:05;;;;;;;4.90;2.80;;;;;;;;;;5052947;28;20028;-76
2023/02/21 08:54:32;;;;;;;7.78;2.38;;;;;;;;;;5048244;28;20365;-78
2023/02/21 08:56:58;;;;;;;6.15;2.60;;;;;;;;;;5046007;28;20111;-76
2023/02/21 08:59:24;;;;;;;5.75;2.53;;;;;;;;;;5063325;28;20556;-79
2023/02/21 09:01:50;;;;;;;5.25;2.53;;;;;;;;;;5039917;28;20040;-79
2023/02/21 09:04:15;;;;;;;6.38;3.10;;;;;;;;;;5044362;28;20028;-77
2023/02/21 09:06:41;;;;;;;4.70;2.72;;;;;;;;;;5039738;28;20060;-78
2023/02/21 09:09:06;;;;;;;5.78;2.28;;;;;;;;;;5053485;28;20081;-77
2023/02/21 09:11:32;;;;;;;5.40;2.70;;;;;;;;;;5051156;28;20021;-78
2023/02/21 09:13:58;;;;;;;4.20;2.70;;;;;;;;;;5048190;28;20381;-79
2023/02/21 09:16:23;;;;;;;5.45;2.85;;;;;;;;;;5048874;28;20130;-80
2023/02/21 09:18:59;;;;;;;4.97;2.85;;;;;;;;;;5045485;28;20458;-77
2023/02/21 09:21:28;;;;;;;5.75;2.70;;;;;;;;;;5050455;28;20083;-79
2023/02/21 09:23:55;;;;;;;7.47;2.72;;;;;;;;;;5046578;28;20041;-79
2023/02/21 09:26:23;;;;;;;6.60;2.75;;;;;;;;;;5043136;28;20741;-81
2023/02/21 09:28:49;;;;;;;9.23;3.33;;;;;;;;;;5047854;28;20053;-79
2023/02/21 09:31:15;;;;;;;6.22;3.15;;;;;;;;;;5049268;28;20047;-78
2023/02/21 09:33:40;;;;;;;5.85;2.67;;;;;;;;;;5049796;28;20026;-80
2023/02/21 09:36:09;;;;;;;5.88;2.83;;;;;;;;;;5043056;28;20056;-78
2023/02/21 09:38:35;;;;;;;5.50;2.80;;;;;;;;;;5048430;28;20040;-78
2023/02/21 09:41:04;;;;;;;4.13;3.28;;;;;;;;;;5049728;28;20075;-78
2023/02/21 09:43:38;;;;;;;7.82;2.65;;;;;;;;;;5050390;28;20056;-79
2023/02/21 09:46:16;;;;;;;5.22;3.00;;;;;;;;;;5045155;28;20033;-78
2023/02/21 09:48:43;;;;;;;5.35;2.78;;;;;;;;;;5069126;28;20477;-79
2023/02/21 09:51:11;;;;;;;6.57;3.10;;;;;;;;;;5062518;28;20024;-79
2023/02/21 09:53:42;;;;;;;6.32;2.58;;;;;;;;;;5034926;28;20028;-78
2023/02/21 09:56:17;;;;;;;4.22;2.40;;;;;;;;;;5042902;28;20028;-79
2023/02/21 09:58:43;;;;;;;3.55;2.28;;;;;;;;;;5048253;28;20146;-79
2023/02/21 10:01:31;;;;;;;5.60;2.78;;;;;;;;;;5043491;28;20070;-79
2023/02/21 10:04:35;;;;;;;4.55;2.85;;;;;;;;;;5052094;28;20025;-78
2023/02/21 10:07:24;;;;;;;6.82;2.70;;;;;;;;;;5042344;28;20025;-78
2023/02/21 10:09:59;;;;;;;4.80;2.78;;;;;;;;;;5066882;28;20544;-80
2023/02/21 10:12:29;;;;;;;5.78;2.65;;;;;;;;;;5049494;28;20397;-79
2023/02/21 10:15:14;;;;;;;6.88;2.55;;;;;;;;;;5048308;28;20029;-79
2023/02/21 10:17:55;;;;;;;7.38;2.92;;;;;;;;;;5051094;28;20416;-80
2023/02/21 10:20:37;;;;;;;6.95;2.97;;;;;;;;;;5054469;28;20118;-78
2023/02/21 10:23:14;;;;;;;5.43;2.33;;;;;;;;;;5041676;28;20061;-79
2023/02/21 10:25:43;;;;;;;7.10;3.28;;;;;;;;;;5049559;28;20024;-77
2023/02/21 10:28:17;;;;;;;4.63;2.33;;;;;;;;;;5042833;28;20025;-80
2023/02/21 10:30:45;;;;;;;5.47;2.40;;;;;;;;;;5050524;28;20129;-78
2023/02/21 10:33:11;;;;;;;4.45;2.30;;;;;;;;;;5044449;28;20037;-80
2023/02/21 10:35:38;;;;;;;4.32;2.53;;;;;;;;;;5042336;28;20051;-78
2023/02/21 10:38:08;;;;;;;4.65;2.95;;;;;;;;;;5050935;28;20488;-79
2023/02/21 10:40:49;;;;;;;8.50;2.75;;;;;;;;;;5038343;28;20059;-80
2023/02/21 10:43:35;;;;;;;4.38;2.05;;;;;;;;;;5048432;28;20026;-79
2023/02/21 10:46:19;;;;;;;8.68;3.13;;;;;;;;;;5049010;28;20391;-79
2023/02/21 10:48:47;;;;;;;5.63;2.55;;;;;;;;;;5056041;28;20029;-79
2023/02/21 10:51:14;;;;;;;4.18;2.67;;;;;;;;;;5052377;28;20067;-81
2023/02/21 10:53:41;;;;;;;4.32;2.58;;;;;;;;;;5054867;28;20051;-79
2023/02/21 10:56:19;;;;;;;6.22;2.95;;;;;;;;;;5054182;28;20028;-78
2023/02/21 10:58:47;;;;;;;6.75;2.65;;;;;;;;;;5060431;28;20036;-79
2023/02/21 11:01:24;;;;;;;6.28;3.10;;;;;;;;;;5057705;28;20033;-78
2023/02/21 11:03:54;;;;;;;3.42;2.15;;;;;;;;;;5048436;28;20113;-79
2023/02/21 11:06:36;;;;;;;6.85;3.08;;;;;;;;;;5058259;28;20074;-79
2023/02/21 11:09:41;;;;;;;6.80;2.83;;;;;;;;;;5042885;28;20037;-81
2023/02/21 11:12:30;;;;;;;5.03;2.80;;;;;;;;;;5038318;28;20037;-79
2023/02/21 11:14:56;;;;;;;5.68;2.65;;;;;;;;;;5055190;28;20028;-79
2023/02/21 11:17:27;;;;;;;3.92;2.30;;;;;;;;;;5049627;28;20029;-80
2023/02/21 11:19:55;;;;;;;5.05;2.55;;;;;;;;;;5045117;28;20037;-80
2023/02/21 11:22:41;;;;;;;5.05;2.72;;;;;;;;;;5049254;28;20095;-78
2023/02/21 11:25:22;;;;;;;5.80;3.28;;;;;;;;;;5038444;28;20499;-79
2023/02/21 11:28:16;;;;;;;2.92;2.38;;;;;;;;;;5044288;28;20041;-79
2023/02/21 11:30:50;;;;;;;10.25;2.30;;;;;;;;;;5034658;28;20493;-77
2023/02/21 11:33:25;;;;;;;8.30;3.08;;;;;;;;;;5052845;28;20029;-81
2023/02/21 11:35:55;;;;;;;8.07;2.83;;;;;;;;;;5051997;28;20114;-78
2023/02/21 11:38:35;;;;;;;5.57;2.60;;;;;;;;;;5043485;28;20400;-80
2023/02/21 11:41:03;;;;;;;5.25;2.53;;;;;;;;;;5057731;28;20024;-79
2023/02/21 11:43:30;;;;;;;5.10;2.72;;;;;;;;;;5052257;28;20333;-79
2023/02/21 11:46:12;;;;;;;6.60;2.90;;;;;;;;;;5042293;28;20032;-85
2023/02/21 11:49:00;;;;;;;4.63;2.30;;;;;;;;;;5048792;28;20029;-79
2023/02/21 11:51:30;;;;;;;5.60;2.80;;;;;;;;;;5041155;28;20124;-79
2023/02/21 11:53:57;;;;;;;8.50;2.80;;;;;;;;;;5041368;28;20044;-82
2023/02/21 11:56:29;;;;;;;4.10;2.63;;;;;;;;;;5049485;28;20032;-82
2023/02/21 11:59:24;;;;;;;10.93;3.17;;;;;;;;;;5051081;28;20383;-81
2023/02/21 12:02:28;;;;;;;3.50;2.38;;;;;;;;;;5032735;28;20127;-79
2023/02/21 12:04:56;;;;;;;6.78;3.58;;;;;;;;;;5073958;28;20477;-81
2023/02/21 12:07:41;;;;;;;5.18;2.80;;;;;;;;;;5048491;28;20032;-80
2023/02/21 12:10:21;;;;;;;6.20;3.63;;;;;;;;;;5063654;28;20077;-79
2023/02/21 12:13:32;;;;;;;4.90;2.80;;;;;;;;;;5037489;28;20396;-79
2023/02/21 12:16:21;;;;;;;3.45;2.58;;;;;;;;;;5043865;28;20012;-80
2023/02/21 12:19:24;;;;;;;10.05;3.33;;;;;;;;;;5036077;28;20036;-78
2023/02/21 12:21:59;;;;;;;5.53;2.83;;;;;;;;;;5054108;28;20033;-80
2023/02/21 12:24:34;;;;;;;5.25;2.78;;;;;;;;;;5048980;28;20033;-79
2023/02/21 12:27:14;;;;;;;5.95;2.75;;;;;;;;;;5039952;28;20380;-81
2023/02/21 12:30:01;;;;;;;7.43;2.67;;;;;;;;;;5054415;28;20051;-80
2023/02/21 12:32:43;;;;;;;9.30;3.65;;;;;;;;;;5044121;28;20032;-81
2023/02/21 12:35:35;;;;;;;5.13;2.95;;;;;;;;;;5054225;28;20053;-86
2023/02/21 12:38:03;;;;;;;;;;;;;;;;;;5048024;28;20021;-81
2023/02/21 12:40:31;;;;;;;4.35;2.63;;;;;;;;;;5022229;28;20281;-79
2023/02/21 12:43:15;;;;;;;9.63;3.22;;;;;;;;;;5043102;28;20029;-81
2023/02/21 12:45:46;;;;;;;6.40;3.17;;;;;;;;;;5053348;28;20529;-80
2023/02/21 12:49:00;;;;;;;3.40;2.40;;;;;;;;;;5048895;28;20022;-80
2023/02/21 12:51:31;;;;;;;7.65;3.33;;;;;;;;;;5052127;28;20403;-79
2023/02/21 12:54:02;;;;;;;5.77;2.50;;;;;;;;;;5065045;28;20048;-81
2023/02/21 12:56:52;;;;;;;6.47;3.80;;;;;;;;;;5054701;28;20282;-81
2023/02/21 12:59:26;;;;;;;4.13;2.50;;;;;;;;;;5045650;28;20033;-81
2023/02/21 13:02:01;;;;;;;6.35;2.95;;;;;;;;;;5044018;28;20029;-81
2023/02/21 13:04:43;;;;;;;4.72;2.85;;;;;;;;;;5056560;28;20027;-81
2023/02/21 13:07:24;;;;;;;6.03;2.65;;;;;;;;;;5042611;28;20479;-76
2023/02/21 13:10:14;;;;;;;4.45;2.40;;;;;;;;;;5046514;28;20033;-79
2023/02/21 13:12:53;;;;;;;3.83;2.47;;;;;;;;;;5051692;28;20056;-78
2023/02/21 13:15:21;;;;;;;3.90;2.58;;;;;;;;;;5039980;28;20025;-78
2023/02/21 13:18:00;;;;;;;10.75;3.22;;;;;;;;;;5049139;28;20040;-81
2023/02/21 13:20:33;;;;;;;7.38;2.25;;;;;;;;;;5047885;28;20095;-79
2023/02/21 13:23:17;;;;;;;4.30;3.35;;;;;;;;;;5017504;28;20044;-80
2023/02/21 13:25:50;;;;;;;4.60;2.40;;;;;;;;;;5044834;28;20034;-79
2023/02/21 13:28:22;;;;;;;5.68;2.42;;;;;;;;;;5060119;28;20051;-80
2023/02/21 13:30:58;;;;;;;6.30;2.60;;;;;;;;;;5062927;28;20051;-79
2023/02/21 13:33:43;;;;;;;5.85;2.40;;;;;;;;;;5045691;28;20207;-79
2023/02/21 13:36:25;;;;;;;2.63;2.08;;;;;;;;;;5052836;28;20048;-80
2023/02/21 13:39:12;;;;;;;7.38;2.42;;;;;;;;;;5043541;28;20439;-81
2023/02/21 13:41:40;;;;;;;3.50;2.05;;;;;;;;;;5047226;28;20033;-80
2023/02/21 13:44:16;;;;;;;3.40;2.20;;;;;;;;;;5055433;28;20100;-80
2023/02/21 13:46:44;;;;;;;4.72;1.90;;;;;;;;;;5042490;28;20049;-79
2023/02/21 13:49:37;;;;;;;2.65;1.90;;;;;;;;;;5051500;28;20025;-79
2023/02/21 13:52:21;;;;;;;4.25;2.17;;;;;;;;;;5038826;28;20028;-80
2023/02/21 13:55:14;;;;;;;6.85;2.08;;;;;;;;;;5048933;28;20044;-78
2023/02/21 13:58:10;;;;;;;3.05;1.92;;;;;;;;;;5052654;28;20024;-80
2023/02/21 14:00:36;;;;;;;5.60;2.47;;;;;;;;;;5055355;28;20047;-80
2023/02/21 14:03:22;;;;;;;3.58;1.73;;;;;;;;;;5050621;28;20084;-81
2023/02/21 14:05:51;;;;;;;4.60;2.00;;;;;;;;;;5045919;28;20033;-79
2023/02/21 14:08:36;;;;;;;2.70;2.05;;;;;;;;;;5046769;28;20123;-82
2023/02/21 14:11:05;;;;;;;4.78;2.00;;;;;;;;;;5040582;28;20488;-80
2023/02/21 14:13:41;;;;;;;3.75;1.73;;;;;;;;;;5053987;28;20111;-80
2023/02/21 14:16:06;;;;;;;7.30;1.83;;;;;;;;;;5046623;28;20460;-79
2023/02/21 14:18:48;;;;;;;3.25;1.75;;;;;;;;;;5049273;28;20083;-79
2023/02/21 14:21:44;;;;;;;4.20;1.88;;;;;;;;;;5050170;28;20021;-79
2023/02/21 14:24:14;;;;;;;2.95;1.48;;;;;;;;;;5058933;28;20086;-79
2023/02/21 14:26:56;;;;;;;4.22;1.65;;;;;;;;;;5048799;28;20092;-80
2023/02/21 14:29:39;;;;;;;4.82;1.98;;;;;;;;;;5051934;28;20036;-81
2023/02/21 14:32:07;;;;;;;5.90;1.85;;;;;;;;;;5045802;28;20017;-79
2023/02/21 14:34:48;;;;;;;3.00;1.75;;;;;;;;;;5045590;28;20021;-79
2023/02/21 14:37:35;;;;;;;3.45;2.03;;;;;;;;;;5051829;28;20095;-80
2023/02/21 14:40:09;;;;;;;4.25;2.10;;;;;;;;;;5040114;28;20057;-82
2023/02/21 14:42:43;;;;;;;2.85;1.33;;;;;;;;;;5046913;28;20596;-80
2023/02/21 14:45:16;;;;;;;3.80;1.50;;;;;;;;;;5040258;28;20529;-81
2023/02/21 14:47:47;;;;;;;5.30;1.48;;;;;;;;;;5037157;28;20453;-81
2023/02/21 14:50:36;;;;;;;3.40;1.30;;;;;;;;;;5047164;28;20029;-79
2023/02/21 14:53:20;;;;;;;4.18;1.50;;;;;;;;;;5034426;28;20462;-78
2023/02/21 14:55:56;;;;;;;4.32;1.85;;;;;;;;;;5039326;28;20032;-79
2023/02/21 14:58:59;;;;;;;3.80;1.92;;;;;;;;;;5048006;28;20108;-78
2023/02/21 15:01:55;;;;;;;10.10;2.65;;;;;;;;;;5037229;28;20048;-78
2023/02/21 15:04:32;;;;;;;2.88;1.83;;;;;;;;;;5048415;28;20032;-79
2023/02/21 15:07:06;;;;;;;6.32;1.70;;;;;;;;;;5055338;28;20068;-82
2023/02/21 15:09:32;;;;;;;2.50;1.38;;;;;;;;;;5052034;28;20027;-79
2023/02/21 15:11:58;;;;;;;2.45;1.67;;;;;;;;;;5047487;28;20029;-79
2023/02/21 15:14:32;;;;;;;3.17;2.05;;;;;;;;;;5041939;28;20032;-80
2023/02/21 15:17:08;;;;;;;4.43;1.55;;;;;;;;;;5067304;28;20546;-79
2023/02/21 15:19:35;;;;;;;4.38;1.70;;;;;;;;;;5047890;28;20552;-81
2023/02/21 15:22:19;;;;;;;3.08;1.48;;;;;;;;;;5045976;28;20092;-79
2023/02/21 15:25:09;;;;;;;1.65;1.52;;;;;;;;;;5065287;28;20432;-79
2023/02/21 15:27:57;;;;;;;6.43;1.60;;;;;;;;;;5047808;28;20682;-78
2023/02/21 15:30:39;;;;;;;4.45;2.28;;;;;;;;;;5053759;28;20326;-78
2023/02/21 15:33:18;;;;;;;6.00;2.03;;;;;;;;;;5047895;28;20365;-79
2023/02/21 15:35:50;;;;;;;2.80;1.52;;;;;;;;;;5040880;28;20051;-79
2023/02/21 15:38:22;;;;;;;2.97;1.80;;;;;;;;;;5038322;28;20041;-79
2023/02/21 15:40:49;;;;;;;;;;;;;;;;;;5048063;28;20513;-79
2023/02/21 15:43:31;;;;;;;4.45;1.83;;;;;;;;;;5050866;28;19916;-82
2023/02/21 15:46:00;;;;;;;4.13;2.20;;;;;;;;;;5051163;28;20357;-81
2023/02/21 15:48:26;;;;;;;3.85;1.23;;;;;;;;;;5049922;28;20024;-80
2023/02/21 15:50:52;;;;;;;4.45;1.90;;;;;;;;;;5054450;28;20329;-80
2023/02/21 15:53:23;;;;;;;3.10;1.67;;;;;;;;;;5053434;28;20043;-80
2023/02/21 15:55:51;;;;;;;5.57;1.90;;;;;;;;;;5044026;28;20519;-80
2023/02/21 15:58:26;;;;;;;4.72;1.85;;;;;;;;;;5052914;28;20052;-79
2023/02/21 16:01:11;;;;;;;5.82;1.88;;;;;;;;;;5050223;28;20028;-79
2023/02/21 16:03:45;;;;;;;3.85;2.13;;;;;;;;;;5041576;28;20114;-80
2023/02/21 16:06:27;;;;;;;6.65;2.30;;;;;;;;;;5045337;28;20113;-80
2023/02/21 16:09:24;;;;;;;3.72;2.70;;;;;;;;;;5050187;28;20029;-81
2023/02/21 16:11:55;;;;;;;6.45;2.53;;;;;;;;;;5039667;28;20052;-78
2023/02/21 16:14:40;;;;;;;7.75;2.45;;;;;;;;;;5051936;28;20776;-81
2023/02/21 16:17:23;;;;;;;3.60;1.95;;;;;;;;;;5044277;28;20119;-77
2023/02/21 16:19:52;;;;;;;6.65;2.20;;;;;;;;;;5050390;28;20036;-78
2023/02/21 16:22:38;;;;;;;4.72;2.40;;;;;;;;;;5050047;28;20091;-81
2023/02/21 16:25:05;;;;;;;5.97;3.63;;;;;;;;;;5039967;28;20017;-81
2023/02/21 16:27:31;;;;;;;13.02;3.63;;;;;;;;;;5045214;28;20033;-81
2023/02/21 16:29:56;;;;;;;4.93;2.80;;;;;;;;;;5049678;28;20029;-83
2023/02/21 16:32:22;;;;;;;4.78;2.88;;;;;;;;;;5051471;28;20040;-81
2023/02/21 16:34:50;;;;;;;14.55;4.00;;;;;;;;;;5051471;28;20603;-80
2023/02/21 16:37:15;;;;;;;5.70;2.97;;;;;;;;;;5046160;28;20037;-79
2023/02/21 16:39:41;;;;;;;4.68;3.22;;;;;;;;;;5047851;28;20032;-81
2023/02/21 16:42:07;;;;;;;5.88;3.20;;;;;;;;;;5050768;28;20033;-83
2023/02/21 16:44:33;;;;;;;8.65;3.53;;;;;;;;;;5052372;28;20036;-81
2023/02/21 16:46:59;;;;;;;7.82;3.70;;;;;;;;;;5040085;28;20048;-80
2023/02/21 16:49:24;;;;;;;11.25;4.40;;;;;;;;;;5040808;28;20028;-80
2023/02/21 16:51:50;;;;;;;5.38;3.17;;;;;;;;;;5050007;28;20056;-80
2023/02/21 16:54:16;;;;;;;9.02;4.32;;;;;;;;;;5038508;28;20037;-82
2023/02/21 16:56:45;;;;;;;7.13;3.53;;;;;;;;;;5029428;28;20037;-78
2023/02/21 16:59:13;;;;;;;11.70;4.10;;;;;;;;;;5049479;28;20085;-82
2023/02/21 17:01:39;;;;;;;5.60;3.53;;;;;;;;;;5049094;28;20037;-84
2023/02/21 17:04:22;;;;;;;7.78;3.83;;;;;;;;;;5045383;28;20396;-82
2023/02/21 17:07:02;;;;;;;7.35;4.00;;;;;;;;;;5041309;28;20057;-83
2023/02/21 17:09:32;;;;;;;8.27;3.53;;;;;;;;;;5047879;28;20028;-81
2023/02/21 17:11:59;;;;;;;5.90;3.47;;;;;;;;;;5056719;28;20029;-82
2023/02/21 17:14:25;;;;;;;7.65;3.55;;;;;;;;;;5054310;28;20024;-80
2023/02/21 17:16:51;;;;;;;7.30;3.42;;;;;;;;;;5058659;28;20040;-81
2023/02/21 17:19:19;;;;;;;12.15;4.55;;;;;;;;;;5056639;28;20040;-79
2023/02/21 17:21:47;;;;;;;8.52;3.60;;;;;;;;;;5055724;28;20033;-82
2023/02/21 17:24:13;;;;;;;8.75;3.83;;;;;;;;;;5055172;28;20491;-80
2023/02/21 17:26:40;;;;;;;5.63;3.85;;;;;;;;;;5056374;28;20056;-82
2023/02/21 17:29:06;;;;;;;6.13;3.75;;;;;;;;;;5038774;28;20067;-82
2023/02/21 17:31:32;;;;;;;23.70;11.10;;;;;;;;;;5055509;28;20035;-81